Terminal Aerodrome Forecast
Issued by NWS

Home | Current Version | Previous Version | Graphics & Text | Print | Product List | Glossary On
Versions: 1 2 3 4 5 6 7 8 9 10 11 12 13 14 15 16 17
000
FTUS45 KGGW 280400 AAA
TAFSDY
TAF AMD
KSDY 280447Z 2805/2824 12007KT P6SM BKN090
     FM280900 VRB03KT P6SM BKN010
     FM282100 21010KT P6SM BKN050
      AMD LTD TO CLD VIS AND WIND=

USA.gov is the U.S. government's official web portal to all federal, state and local government web resources and services.